ARCT2: Red River, ARthur City

                                SHEF ID:       ARCT2     Red River at Arthur City, TX
STATION TYPE: Stream Gauge
Regulating: Stage = 27.00, Flow = 84609

PRECIP ELEVATION STAGE STAGE(2) RIV-FLOW BAT-LOAD
in ft ft ft cfs volt
Ccp-Rev Ccp-Rev Ccp-Rev Ccp-Rev Ccp-Rev Ccp-Rev
(America/Chicago)
02/19 00:00 0.00 ---- 6.14 ---- 3645 12.49
02/19 01:00 0.00 ---- 6.10 ---- 3582 12.49
02/19 02:00 0.00 ---- 6.05 ---- 3504 12.49
02/19 03:00 0.00 ---- 6.00 ---- 3427 12.49
02/19 04:00 0.00 ---- 5.97 ---- 3381 12.41
02/19 05:00 0.00 ---- 5.91 ---- 3290 12.41
02/19 06:00 0.00 ---- 5.90 ---- 3275 12.41
02/19 07:00 0.00 ---- 5.84 ---- 3185 12.41
02/19 08:00 0.00 ---- 5.81 ---- 3141 12.41
02/19 09:00 0.00 ---- 5.76 ---- 3068 13.53
02/19 10:00 0.00 ---- 5.76 ---- 3068 14.24
02/19 11:00 0.00 ---- 5.66 ---- 2924 13.84
02/19 12:00 0.00 ---- 5.54 ---- 2761 13.92
02/19 13:00 0.00 ---- 5.57 ---- 2801 13.84
02/19 14:00 0.00 ---- 5.44 ---- 2630 13.68
02/19 15:00 0.00 ---- 5.55 ---- 2774 13.76
02/19 16:00 0.00 ---- 5.41 ---- 2591 ----
02/19 17:00 0.00 ---- 5.45 ---- 2643 13.68
02/19 18:00 0.00 ---- 5.44 ---- 2630 ----
02/19 19:00 0.00 ---- 5.46 ---- 2656 12.89
02/19 20:00 0.00 ---- 5.44 ---- 2630 12.57
02/19 21:00 0.00 ---- 5.22 ---- 2353 12.57
02/19 22:00 0.00 ---- 5.27 ---- 2415 12.57
02/19 23:00 0.00 ---- 5.26 ---- 2402 12.57
Data processed at Fri 20Feb2026 05:30 GMT

NOTICE: If you are parsing this page

Please convert to using our Data API. Starting early 2026 we will be migrating to: https://water.usace.army.mil with modern pages rendered in JavaScript. When this migration completes you will no longer be able to scrape this page! CWMSDataAPI (CDA)

Timeseries IDs (TSIDs)

TSIDs used from left to right in the data table
ARTH.Precip-Inc.Total.1Hour.1Hour.Ccp-Rev
ARTH.Stage.Inst.1Hour.0.Ccp-Rev
ARTH.Stage-Alt.Inst.1Hour.0.Ccp-Rev
ARTH.Flow.Inst.1Hour.0.Ccp-Rev
ARTH.Volt-Battery Load.Inst.1Hour.0.Ccp-Rev

                            

All information presented herein is the property of the government of the United States of America and may be revised or deleted at any time without prior notice. Dissemination of this information without the expressed written consent of the Public Affairs Office, Tulsa District U.S. Army Corps of Engineers is strictly prohibited. These data are gathered electronically and, as presented, have NOT undergone any form of quality control. These data are NOT guaranteed to be valid or correct.